sensor_id;sensor_type;location;lat;lon;timestamp;P1;durP1;ratioP1;P2;durP2;ratioP2
16705;SDS011;8469;60.136;15.180;2023-12-20T00:01:28;2.72;;;1.20;;
16705;SDS011;8469;60.136;15.180;2023-12-20T00:03:55;3.47;;;1.10;;
16705;SDS011;8469;60.136;15.180;2023-12-20T00:06:23;2.33;;;1.05;;
16705;SDS011;8469;60.136;15.180;2023-12-20T00:08:50;1.67;;;0.90;;
16705;SDS011;8469;60.136;15.180;2023-12-20T00:11:17;1.77;;;0.82;;
16705;SDS011;8469;60.136;15.180;2023-12-20T00:13:45;3.20;;;0.90;;
16705;SDS011;8469;60.136;15.180;2023-12-20T00:16:12;1.55;;;0.70;;
16705;SDS011;8469;60.136;15.180;2023-12-20T00:18:39;2.15;;;0.82;;
16705;SDS011;8469;60.136;15.180;2023-12-20T00:21:07;1.80;;;0.70;;
16705;SDS011;8469;60.136;15.180;2023-12-20T00:23:34;0.90;;;0.78;;
16705;SDS011;8469;60.136;15.180;2023-12-20T00:26:01;4.72;;;0.80;;
16705;SDS011;8469;60.136;15.180;2023-12-20T00:28:29;0.70;;;0.70;;
16705;SDS011;8469;60.136;15.180;2023-12-20T00:30:56;2.20;;;0.75;;
16705;SDS011;8469;60.136;15.180;2023-12-20T00:33:23;3.45;;;1.00;;
16705;SDS011;8469;60.136;15.180;2023-12-20T00:35:51;2.30;;;1.00;;
16705;SDS011;8469;60.136;15.180;2023-12-20T00:38:18;4.30;;;1.05;;
16705;SDS011;8469;60.136;15.180;2023-12-20T00:40:45;2.17;;;1.00;;
16705;SDS011;8469;60.136;15.180;2023-12-20T00:43:13;4.00;;;1.82;;
16705;SDS011;8469;60.136;15.180;2023-12-20T00:45:40;2.55;;;1.40;;
16705;SDS011;8469;60.136;15.180;2023-12-20T00:48:07;5.25;;;2.05;;
16705;SDS011;8469;60.136;15.180;2023-12-20T00:50:34;5.12;;;1.70;;
16705;SDS011;8469;60.136;15.180;2023-12-20T00:53:02;3.87;;;1.07;;
16705;SDS011;8469;60.136;15.180;2023-12-20T00:55:29;2.60;;;1.10;;
16705;SDS011;8469;60.136;15.180;2023-12-20T00:57:57;2.77;;;1.10;;
16705;SDS011;8469;60.136;15.180;2023-12-20T01:00:27;2.72;;;0.90;;
16705;SDS011;8469;60.136;15.180;2023-12-20T01:02:55;2.40;;;0.80;;
16705;SDS011;8469;60.136;15.180;2023-12-20T01:05:24;2.80;;;0.70;;
16705;SDS011;8469;60.136;15.180;2023-12-20T01:07:51;3.45;;;1.10;;
16705;SDS011;8469;60.136;15.180;2023-12-20T01:10:19;3.50;;;0.88;;
16705;SDS011;8469;60.136;15.180;2023-12-20T01:12:48;3.25;;;1.00;;
16705;SDS011;8469;60.136;15.180;2023-12-20T01:15:15;0.90;;;0.85;;
16705;SDS011;8469;60.136;15.180;2023-12-20T01:17:42;2.27;;;1.25;;
16705;SDS011;8469;60.136;15.180;2023-12-20T01:20:10;2.85;;;1.00;;
16705;SDS011;8469;60.136;15.180;2023-12-20T01:22:37;4.92;;;1.10;;
16705;SDS011;8469;60.136;15.180;2023-12-20T01:25:04;1.60;;;1.10;;
16705;SDS011;8469;60.136;15.180;2023-12-20T01:27:32;1.60;;;0.98;;
16705;SDS011;8469;60.136;15.180;2023-12-20T01:30:01;3.72;;;1.10;;
16705;SDS011;8469;60.136;15.180;2023-12-20T01:32:28;0.80;;;0.80;;
16705;SDS011;8469;60.136;15.180;2023-12-20T01:34:56;2.92;;;0.80;;
16705;SDS011;8469;60.136;15.180;2023-12-20T01:37:23;2.67;;;0.90;;
16705;SDS011;8469;60.136;15.180;2023-12-20T01:39:51;1.75;;;0.70;;
16705;SDS011;8469;60.136;15.180;2023-12-20T01:42:19;2.25;;;0.90;;
16705;SDS011;8469;60.136;15.180;2023-12-20T01:44:51;0.80;;;0.70;;
16705;SDS011;8469;60.136;15.180;2023-12-20T01:47:15;1.15;;;0.75;;
16705;SDS011;8469;60.136;15.180;2023-12-20T01:49:43;2.15;;;0.70;;
16705;SDS011;8469;60.136;15.180;2023-12-20T01:52:10;2.02;;;0.80;;
16705;SDS011;8469;60.136;15.180;2023-12-20T01:54:38;0.93;;;0.72;;
16705;SDS011;8469;60.136;15.180;2023-12-20T01:57:06;1.67;;;0.80;;
16705;SDS011;8469;60.136;15.180;2023-12-20T01:59:33;4.65;;;0.95;;
16705;SDS011;8469;60.136;15.180;2023-12-20T02:02:03;3.20;;;0.90;;
16705;SDS011;8469;60.136;15.180;2023-12-20T02:04:30;3.37;;;1.47;;
16705;SDS011;8469;60.136;15.180;2023-12-20T02:06:58;3.70;;;1.30;;
16705;SDS011;8469;60.136;15.180;2023-12-20T02:09:26;2.90;;;1.30;;
16705;SDS011;8469;60.136;15.180;2023-12-20T02:11:54;5.20;;;1.20;;
16705;SDS011;8469;60.136;15.180;2023-12-20T02:14:20;1.93;;;1.20;;
16705;SDS011;8469;60.136;15.180;2023-12-20T02:16:48;3.20;;;1.40;;
16705;SDS011;8469;60.136;15.180;2023-12-20T02:19:16;1.63;;;1.00;;
16705;SDS011;8469;60.136;15.180;2023-12-20T02:21:44;4.03;;;1.10;;
16705;SDS011;8469;60.136;15.180;2023-12-20T02:24:12;2.58;;;0.98;;
16705;SDS011;8469;60.136;15.180;2023-12-20T02:26:39;3.22;;;0.90;;
16705;SDS011;8469;60.136;15.180;2023-12-20T02:29:07;2.75;;;0.78;;
16705;SDS011;8469;60.136;15.180;2023-12-20T02:31:35;3.83;;;0.80;;
16705;SDS011;8469;60.136;15.180;2023-12-20T02:34:02;0.95;;;0.72;;
16705;SDS011;8469;60.136;15.180;2023-12-20T02:36:29;5.55;;;0.80;;
16705;SDS011;8469;60.136;15.180;2023-12-20T02:38:56;2.17;;;0.93;;
16705;SDS011;8469;60.136;15.180;2023-12-20T02:41:24;1.65;;;0.80;;
16705;SDS011;8469;60.136;15.180;2023-12-20T02:43:51;1.40;;;0.78;;
16705;SDS011;8469;60.136;15.180;2023-12-20T02:46:18;1.47;;;0.80;;
16705;SDS011;8469;60.136;15.180;2023-12-20T02:48:46;1.55;;;0.90;;
16705;SDS011;8469;60.136;15.180;2023-12-20T02:51:13;0.98;;;0.70;;
16705;SDS011;8469;60.136;15.180;2023-12-20T02:53:40;2.60;;;0.90;;
16705;SDS011;8469;60.136;15.180;2023-12-20T02:56:08;4.17;;;0.95;;
16705;SDS011;8469;60.136;15.180;2023-12-20T02:58:35;1.75;;;0.70;;
16705;SDS011;8469;60.136;15.180;2023-12-20T03:01:03;2.40;;;0.70;;
16705;SDS011;8469;60.136;15.180;2023-12-20T03:03:30;2.17;;;0.90;;
16705;SDS011;8469;60.136;15.180;2023-12-20T03:05:58;4.37;;;0.90;;
16705;SDS011;8469;60.136;15.180;2023-12-20T03:08:25;1.67;;;0.80;;
16705;SDS011;8469;60.136;15.180;2023-12-20T03:10:53;0.85;;;0.70;;
16705;SDS011;8469;60.136;15.180;2023-12-20T03:13:20;1.98;;;0.90;;
16705;SDS011;8469;60.136;15.180;2023-12-20T03:15:47;2.22;;;0.80;;
16705;SDS011;8469;60.136;15.180;2023-12-20T03:18:15;4.78;;;1.07;;
16705;SDS011;8469;60.136;15.180;2023-12-20T03:20:42;2.40;;;0.82;;
16705;SDS011;8469;60.136;15.180;2023-12-20T03:23:10;3.43;;;1.00;;
16705;SDS011;8469;60.136;15.180;2023-12-20T03:25:37;2.50;;;1.05;;
16705;SDS011;8469;60.136;15.180;2023-12-20T03:28:04;4.67;;;1.57;;
16705;SDS011;8469;60.136;15.180;2023-12-20T03:30:32;2.25;;;1.00;;
16705;SDS011;8469;60.136;15.180;2023-12-20T03:32:59;2.55;;;0.80;;
16705;SDS011;8469;60.136;15.180;2023-12-20T03:35:26;1.90;;;0.90;;
16705;SDS011;8469;60.136;15.180;2023-12-20T03:37:54;3.00;;;0.75;;
16705;SDS011;8469;60.136;15.180;2023-12-20T03:40:21;3.55;;;0.75;;
16705;SDS011;8469;60.136;15.180;2023-12-20T03:42:48;4.37;;;1.42;;
16705;SDS011;8469;60.136;15.180;2023-12-20T03:45:16;4.37;;;1.00;;
16705;SDS011;8469;60.136;15.180;2023-12-20T03:47:43;3.37;;;1.17;;
16705;SDS011;8469;60.136;15.180;2023-12-20T03:50:10;4.20;;;0.75;;
16705;SDS011;8469;60.136;15.180;2023-12-20T03:52:38;2.50;;;0.70;;
16705;SDS011;8469;60.136;15.180;2023-12-20T03:55:05;3.85;;;0.70;;
16705;SDS011;8469;60.136;15.180;2023-12-20T03:57:32;3.00;;;0.80;;
16705;SDS011;8469;60.136;15.180;2023-12-20T04:00:00;3.65;;;0.85;;
16705;SDS011;8469;60.136;15.180;2023-12-20T04:02:27;2.75;;;0.72;;
16705;SDS011;8469;60.136;15.180;2023-12-20T04:04:54;4.00;;;0.90;;
16705;SDS011;8469;60.136;15.180;2023-12-20T04:07:24;3.80;;;1.05;;
16705;SDS011;8469;60.136;15.180;2023-12-20T04:09:51;5.30;;;0.90;;
16705;SDS011;8469;60.136;15.180;2023-12-20T04:12:18;2.00;;;0.90;;
16705;SDS011;8469;60.136;15.180;2023-12-20T04:14:46;2.42;;;0.70;;
16705;SDS011;8469;60.136;15.180;2023-12-20T04:17:14;9.40;;;3.73;;
16705;SDS011;8469;60.136;15.180;2023-12-20T04:19:42;7.40;;;3.20;;
16705;SDS011;8469;60.136;15.180;2023-12-20T04:22:09;3.10;;;1.10;;
16705;SDS011;8469;60.136;15.180;2023-12-20T04:24:37;3.98;;;1.50;;
16705;SDS011;8469;60.136;15.180;2023-12-20T04:27:04;3.70;;;1.50;;
16705;SDS011;8469;60.136;15.180;2023-12-20T04:29:31;6.12;;;1.57;;
16705;SDS011;8469;60.136;15.180;2023-12-20T04:31:59;1.57;;;1.22;;
16705;SDS011;8469;60.136;15.180;2023-12-20T04:34:27;4.12;;;1.20;;
16705;SDS011;8469;60.136;15.180;2023-12-20T04:36:54;2.73;;;1.20;;
16705;SDS011;8469;60.136;15.180;2023-12-20T04:39:21;2.00;;;1.10;;
16705;SDS011;8469;60.136;15.180;2023-12-20T04:41:48;2.60;;;0.93;;
16705;SDS011;8469;60.136;15.180;2023-12-20T04:44:21;4.12;;;1.10;;
16705;SDS011;8469;60.136;15.180;2023-12-20T04:46:45;4.40;;;0.82;;
16705;SDS011;8469;60.136;15.180;2023-12-20T04:49:12;4.90;;;0.93;;
16705;SDS011;8469;60.136;15.180;2023-12-20T04:51:40;2.50;;;0.98;;
16705;SDS011;8469;60.136;15.180;2023-12-20T04:54:07;3.62;;;0.90;;
16705;SDS011;8469;60.136;15.180;2023-12-20T04:56:36;4.85;;;1.30;;
16705;SDS011;8469;60.136;15.180;2023-12-20T04:59:04;1.57;;;1.00;;
16705;SDS011;8469;60.136;15.180;2023-12-20T05:01:32;1.17;;;0.78;;
16705;SDS011;8469;60.136;15.180;2023-12-20T05:04:00;3.72;;;0.93;;
16705;SDS011;8469;60.136;15.180;2023-12-20T05:06:27;1.90;;;1.00;;
16705;SDS011;8469;60.136;15.180;2023-12-20T05:08:54;10.32;;;3.58;;
16705;SDS011;8469;60.136;15.180;2023-12-20T05:11:21;9.13;;;4.03;;
16705;SDS011;8469;60.136;15.180;2023-12-20T05:13:49;4.40;;;1.95;;
16705;SDS011;8469;60.136;15.180;2023-12-20T05:16:17;4.22;;;1.85;;
16705;SDS011;8469;60.136;15.180;2023-12-20T05:18:45;5.87;;;1.47;;
16705;SDS011;8469;60.136;15.180;2023-12-20T05:21:12;3.87;;;1.85;;
16705;SDS011;8469;60.136;15.180;2023-12-20T05:23:40;4.40;;;1.50;;
16705;SDS011;8469;60.136;15.180;2023-12-20T05:26:06;2.58;;;1.30;;
16705;SDS011;8469;60.136;15.180;2023-12-20T05:28:34;2.00;;;1.22;;
16705;SDS011;8469;60.136;15.180;2023-12-20T05:31:01;2.83;;;1.50;;
16705;SDS011;8469;60.136;15.180;2023-12-20T05:33:29;4.70;;;1.60;;
16705;SDS011;8469;60.136;15.180;2023-12-20T05:35:56;4.57;;;1.60;;
16705;SDS011;8469;60.136;15.180;2023-12-20T05:38:24;4.35;;;1.62;;
16705;SDS011;8469;60.136;15.180;2023-12-20T05:40:52;3.72;;;1.67;;
16705;SDS011;8469;60.136;15.180;2023-12-20T05:43:20;5.42;;;2.15;;
16705;SDS011;8469;60.136;15.180;2023-12-20T05:45:47;5.67;;;2.40;;
16705;SDS011;8469;60.136;15.180;2023-12-20T05:48:14;4.37;;;1.30;;
16705;SDS011;8469;60.136;15.180;2023-12-20T05:50:41;4.60;;;1.47;;
16705;SDS011;8469;60.136;15.180;2023-12-20T05:53:09;5.30;;;1.70;;
16705;SDS011;8469;60.136;15.180;2023-12-20T05:55:36;2.98;;;1.45;;
16705;SDS011;8469;60.136;15.180;2023-12-20T05:58:08;4.78;;;1.82;;
16705;SDS011;8469;60.136;15.180;2023-12-20T06:00:32;5.40;;;1.87;;
16705;SDS011;8469;60.136;15.180;2023-12-20T06:03:03;8.50;;;2.27;;
16705;SDS011;8469;60.136;15.180;2023-12-20T06:05:28;6.30;;;2.30;;
16705;SDS011;8469;60.136;15.180;2023-12-20T06:07:56;7.20;;;2.33;;
16705;SDS011;8469;60.136;15.180;2023-12-20T06:10:25;5.17;;;2.00;;
16705;SDS011;8469;60.136;15.180;2023-12-20T06:12:52;6.40;;;1.90;;
16705;SDS011;8469;60.136;15.180;2023-12-20T06:15:19;4.67;;;1.80;;
16705;SDS011;8469;60.136;15.180;2023-12-20T06:17:47;4.60;;;1.92;;
16705;SDS011;8469;60.136;15.180;2023-12-20T06:20:14;3.85;;;2.20;;
16705;SDS011;8469;60.136;15.180;2023-12-20T06:22:41;3.05;;;2.02;;
16705;SDS011;8469;60.136;15.180;2023-12-20T06:25:08;5.30;;;2.25;;
16705;SDS011;8469;60.136;15.180;2023-12-20T06:27:36;5.78;;;2.35;;
16705;SDS011;8469;60.136;15.180;2023-12-20T06:30:03;6.45;;;2.20;;
16705;SDS011;8469;60.136;15.180;2023-12-20T06:32:31;4.28;;;2.12;;
16705;SDS011;8469;60.136;15.180;2023-12-20T06:34:58;5.90;;;2.08;;
16705;SDS011;8469;60.136;15.180;2023-12-20T06:37:30;4.17;;;1.70;;
16705;SDS011;8469;60.136;15.180;2023-12-20T06:39:54;6.93;;;1.60;;
16705;SDS011;8469;60.136;15.180;2023-12-20T06:42:23;5.25;;;1.55;;
16705;SDS011;8469;60.136;15.180;2023-12-20T06:44:50;6.30;;;1.52;;
16705;SDS011;8469;60.136;15.180;2023-12-20T06:47:17;9.67;;;2.80;;
16705;SDS011;8469;60.136;15.180;2023-12-20T06:49:45;9.15;;;3.02;;
16705;SDS011;8469;60.136;15.180;2023-12-20T06:52:15;6.42;;;1.72;;
16705;SDS011;8469;60.136;15.180;2023-12-20T06:54:42;2.20;;;1.20;;
16705;SDS011;8469;60.136;15.180;2023-12-20T06:57:09;5.65;;;1.40;;
16705;SDS011;8469;60.136;15.180;2023-12-20T06:59:43;2.17;;;1.25;;
16705;SDS011;8469;60.136;15.180;2023-12-20T07:02:10;3.98;;;1.07;;
16705;SDS011;8469;60.136;15.180;2023-12-20T07:04:41;2.50;;;1.00;;
16705;SDS011;8469;60.136;15.180;2023-12-20T07:07:08;6.08;;;1.30;;
16705;SDS011;8469;60.136;15.180;2023-12-20T07:09:35;2.95;;;1.27;;
16705;SDS011;8469;60.136;15.180;2023-12-20T07:12:04;4.83;;;1.25;;
16705;SDS011;8469;60.136;15.180;2023-12-20T07:14:32;3.98;;;1.27;;
16705;SDS011;8469;60.136;15.180;2023-12-20T07:16:59;5.55;;;1.57;;
16705;SDS011;8469;60.136;15.180;2023-12-20T07:19:27;2.70;;;1.20;;
16705;SDS011;8469;60.136;15.180;2023-12-20T07:21:54;3.22;;;1.27;;
16705;SDS011;8469;60.136;15.180;2023-12-20T07:24:21;4.10;;;1.27;;
16705;SDS011;8469;60.136;15.180;2023-12-20T07:26:49;4.78;;;1.40;;
16705;SDS011;8469;60.136;15.180;2023-12-20T07:29:17;7.23;;;1.57;;
16705;SDS011;8469;60.136;15.180;2023-12-20T07:31:44;3.37;;;1.22;;
16705;SDS011;8469;60.136;15.180;2023-12-20T07:34:16;4.37;;;1.10;;
16705;SDS011;8469;60.136;15.180;2023-12-20T07:36:40;4.42;;;1.32;;
16705;SDS011;8469;60.136;15.180;2023-12-20T07:39:07;7.53;;;1.50;;
16705;SDS011;8469;60.136;15.180;2023-12-20T07:41:35;9.68;;;1.40;;
16705;SDS011;8469;60.136;15.180;2023-12-20T07:44:04;4.75;;;1.50;;
16705;SDS011;8469;60.136;15.180;2023-12-20T07:46:31;3.72;;;1.42;;
16705;SDS011;8469;60.136;15.180;2023-12-20T07:48:59;4.12;;;1.40;;
16705;SDS011;8469;60.136;15.180;2023-12-20T07:51:26;4.40;;;1.90;;
16705;SDS011;8469;60.136;15.180;2023-12-20T07:53:53;5.25;;;2.00;;
16705;SDS011;8469;60.136;15.180;2023-12-20T07:56:20;10.25;;;2.83;;
16705;SDS011;8469;60.136;15.180;2023-12-20T07:58:48;6.10;;;2.50;;
16705;SDS011;8469;60.136;15.180;2023-12-20T08:01:15;8.98;;;2.83;;
16705;SDS011;8469;60.136;15.180;2023-12-20T08:03:44;7.70;;;2.33;;
16705;SDS011;8469;60.136;15.180;2023-12-20T08:06:12;4.33;;;2.17;;
16705;SDS011;8469;60.136;15.180;2023-12-20T08:08:40;8.00;;;1.87;;
16705;SDS011;8469;60.136;15.180;2023-12-20T08:11:07;6.95;;;2.30;;
16705;SDS011;8469;60.136;15.180;2023-12-20T08:13:34;4.62;;;2.22;;
16705;SDS011;8469;60.136;15.180;2023-12-20T08:16:02;7.55;;;2.30;;
16705;SDS011;8469;60.136;15.180;2023-12-20T08:18:29;9.75;;;1.98;;
16705;SDS011;8469;60.136;15.180;2023-12-20T08:20:56;7.05;;;1.60;;
16705;SDS011;8469;60.136;15.180;2023-12-20T08:23:24;5.85;;;1.70;;
16705;SDS011;8469;60.136;15.180;2023-12-20T08:25:51;4.28;;;1.60;;
16705;SDS011;8469;60.136;15.180;2023-12-20T08:28:18;6.20;;;1.77;;
16705;SDS011;8469;60.136;15.180;2023-12-20T08:30:46;6.97;;;1.70;;
16705;SDS011;8469;60.136;15.180;2023-12-20T08:33:13;6.03;;;1.98;;
16705;SDS011;8469;60.136;15.180;2023-12-20T08:35:40;3.60;;;1.50;;
16705;SDS011;8469;60.136;15.180;2023-12-20T08:38:07;5.78;;;2.00;;
16705;SDS011;8469;60.136;15.180;2023-12-20T08:40:35;7.33;;;1.75;;
16705;SDS011;8469;60.136;15.180;2023-12-20T08:43:02;5.20;;;1.87;;
16705;SDS011;8469;60.136;15.180;2023-12-20T08:45:30;7.60;;;1.50;;
16705;SDS011;8469;60.136;15.180;2023-12-20T08:47:57;5.07;;;1.63;;
16705;SDS011;8469;60.136;15.180;2023-12-20T08:50:26;4.37;;;1.60;;
16705;SDS011;8469;60.136;15.180;2023-12-20T08:52:53;5.00;;;1.55;;
16705;SDS011;8469;60.136;15.180;2023-12-20T08:55:20;5.47;;;1.57;;
16705;SDS011;8469;60.136;15.180;2023-12-20T08:57:48;6.95;;;1.60;;
16705;SDS011;8469;60.136;15.180;2023-12-20T09:00:17;7.35;;;1.70;;
16705;SDS011;8469;60.136;15.180;2023-12-20T09:02:46;9.90;;;2.17;;
16705;SDS011;8469;60.136;15.180;2023-12-20T09:05:13;7.53;;;2.12;;
16705;SDS011;8469;60.136;15.180;2023-12-20T09:07:40;7.05;;;1.92;;
16705;SDS011;8469;60.136;15.180;2023-12-20T09:10:08;9.55;;;1.55;;
16705;SDS011;8469;60.136;15.180;2023-12-20T09:12:35;7.60;;;2.00;;
16705;SDS011;8469;60.136;15.180;2023-12-20T09:15:04;7.25;;;2.05;;
16705;SDS011;8469;60.136;15.180;2023-12-20T09:17:31;5.33;;;1.45;;
16705;SDS011;8469;60.136;15.180;2023-12-20T09:19:59;5.53;;;1.50;;
16705;SDS011;8469;60.136;15.180;2023-12-20T09:22:26;3.03;;;1.13;;
16705;SDS011;8469;60.136;15.180;2023-12-20T09:24:53;7.75;;;1.22;;
16705;SDS011;8469;60.136;15.180;2023-12-20T09:27:21;3.10;;;1.40;;
16705;SDS011;8469;60.136;15.180;2023-12-20T09:29:49;3.47;;;1.27;;
16705;SDS011;8469;60.136;15.180;2023-12-20T09:32:16;4.40;;;1.50;;
16705;SDS011;8469;60.136;15.180;2023-12-20T09:34:44;6.12;;;1.50;;
16705;SDS011;8469;60.136;15.180;2023-12-20T09:37:11;4.20;;;1.50;;
16705;SDS011;8469;60.136;15.180;2023-12-20T09:39:38;5.17;;;1.55;;
16705;SDS011;8469;60.136;15.180;2023-12-20T09:42:06;3.45;;;1.47;;
16705;SDS011;8469;60.136;15.180;2023-12-20T09:44:33;3.15;;;1.57;;
16705;SDS011;8469;60.136;15.180;2023-12-20T09:47:04;7.50;;;2.12;;
16705;SDS011;8469;60.136;15.180;2023-12-20T09:49:32;4.72;;;1.90;;
16705;SDS011;8469;60.136;15.180;2023-12-20T09:52:00;6.00;;;1.70;;
16705;SDS011;8469;60.136;15.180;2023-12-20T09:54:28;3.83;;;1.65;;
16705;SDS011;8469;60.136;15.180;2023-12-20T09:56:56;5.80;;;1.70;;
16705;SDS011;8469;60.136;15.180;2023-12-20T09:59:23;12.33;;;2.10;;
16705;SDS011;8469;60.136;15.180;2023-12-20T10:01:54;2.17;;;1.35;;
16705;SDS011;8469;60.136;15.180;2023-12-20T10:04:23;7.50;;;2.10;;
16705;SDS011;8469;60.136;15.180;2023-12-20T10:06:52;4.92;;;1.65;;
16705;SDS011;8469;60.136;15.180;2023-12-20T10:09:18;4.55;;;1.77;;
16705;SDS011;8469;60.136;15.180;2023-12-20T10:11:47;8.28;;;1.90;;
16705;SDS011;8469;60.136;15.180;2023-12-20T10:14:14;4.55;;;1.70;;
16705;SDS011;8469;60.136;15.180;2023-12-20T10:16:43;4.25;;;1.67;;
16705;SDS011;8469;60.136;15.180;2023-12-20T10:19:10;5.55;;;1.70;;
16705;SDS011;8469;60.136;15.180;2023-12-20T10:21:37;8.13;;;1.70;;
16705;SDS011;8469;60.136;15.180;2023-12-20T10:24:05;10.20;;;1.60;;
16705;SDS011;8469;60.136;15.180;2023-12-20T10:26:32;4.83;;;1.67;;
16705;SDS011;8469;60.136;15.180;2023-12-20T10:29:01;7.22;;;1.45;;
16705;SDS011;8469;60.136;15.180;2023-12-20T10:31:32;2.45;;;1.30;;
16705;SDS011;8469;60.136;15.180;2023-12-20T10:34:00;3.37;;;1.22;;
16705;SDS011;8469;60.136;15.180;2023-12-20T10:36:32;4.78;;;1.67;;
16705;SDS011;8469;60.136;15.180;2023-12-20T10:38:59;4.87;;;1.47;;
16705;SDS011;8469;60.136;15.180;2023-12-20T10:41:32;5.15;;;1.40;;
16705;SDS011;8469;60.136;15.180;2023-12-20T10:44:04;7.22;;;2.60;;
16705;SDS011;8469;60.136;15.180;2023-12-20T10:46:28;4.50;;;2.12;;
16705;SDS011;8469;60.136;15.180;2023-12-20T10:48:56;3.27;;;2.05;;
16705;SDS011;8469;60.136;15.180;2023-12-20T10:51:24;3.35;;;1.45;;
16705;SDS011;8469;60.136;15.180;2023-12-20T10:54:00;2.95;;;1.57;;
16705;SDS011;8469;60.136;15.180;2023-12-20T10:56:28;4.00;;;1.70;;
16705;SDS011;8469;60.136;15.180;2023-12-20T10:58:56;3.45;;;1.55;;
16705;SDS011;8469;60.136;15.180;2023-12-20T11:01:25;3.25;;;1.98;;
16705;SDS011;8469;60.136;15.180;2023-12-20T11:03:54;4.83;;;1.70;;
16705;SDS011;8469;60.136;15.180;2023-12-20T11:08:52;5.53;;;1.70;;
16705;SDS011;8469;60.136;15.180;2023-12-20T11:11:29;5.17;;;1.50;;
16705;SDS011;8469;60.136;15.180;2023-12-20T11:13:59;3.90;;;1.60;;
16705;SDS011;8469;60.136;15.180;2023-12-20T11:16:26;7.05;;;2.77;;
16705;SDS011;8469;60.136;15.180;2023-12-20T11:18:54;4.83;;;1.80;;
16705;SDS011;8469;60.136;15.180;2023-12-20T11:21:21;4.47;;;2.03;;
16705;SDS011;8469;60.136;15.180;2023-12-20T11:23:48;6.08;;;2.15;;
16705;SDS011;8469;60.136;15.180;2023-12-20T11:26:15;7.20;;;2.50;;
16705;SDS011;8469;60.136;15.180;2023-12-20T11:28:45;7.10;;;3.37;;
16705;SDS011;8469;60.136;15.180;2023-12-20T11:31:14;9.20;;;2.35;;
16705;SDS011;8469;60.136;15.180;2023-12-20T11:33:43;5.03;;;2.12;;
16705;SDS011;8469;60.136;15.180;2023-12-20T11:36:13;5.62;;;2.33;;
16705;SDS011;8469;60.136;15.180;2023-12-20T11:38:54;7.92;;;2.27;;
16705;SDS011;8469;60.136;15.180;2023-12-20T11:41:22;3.45;;;2.17;;
16705;SDS011;8469;60.136;15.180;2023-12-20T11:43:54;5.97;;;1.90;;
16705;SDS011;8469;60.136;15.180;2023-12-20T11:46:22;6.42;;;2.60;;
16705;SDS011;8469;60.136;15.180;2023-12-20T11:48:49;9.20;;;3.40;;
16705;SDS011;8469;60.136;15.180;2023-12-20T11:51:17;9.40;;;2.70;;
16705;SDS011;8469;60.136;15.180;2023-12-20T11:53:44;6.08;;;1.50;;
16705;SDS011;8469;60.136;15.180;2023-12-20T11:56:12;3.77;;;1.17;;
16705;SDS011;8469;60.136;15.180;2023-12-20T11:58:39;2.72;;;1.30;;
16705;SDS011;8469;60.136;15.180;2023-12-20T12:01:07;3.33;;;1.40;;
16705;SDS011;8469;60.136;15.180;2023-12-20T12:03:34;4.08;;;1.15;;
16705;SDS011;8469;60.136;15.180;2023-12-20T12:06:03;5.15;;;1.47;;
16705;SDS011;8469;60.136;15.180;2023-12-20T12:08:31;4.20;;;1.40;;
16705;SDS011;8469;60.136;15.180;2023-12-20T12:10:58;6.90;;;1.55;;
16705;SDS011;8469;60.136;15.180;2023-12-20T12:13:25;5.83;;;1.70;;
16705;SDS011;8469;60.136;15.180;2023-12-20T12:15:54;4.77;;;1.77;;
16705;SDS011;8469;60.136;15.180;2023-12-20T12:18:21;4.83;;;1.62;;
16705;SDS011;8469;60.136;15.180;2023-12-20T12:20:48;3.12;;;1.32;;
16705;SDS011;8469;60.136;15.180;2023-12-20T12:23:22;4.87;;;1.60;;
16705;SDS011;8469;60.136;15.180;2023-12-20T12:25:51;5.12;;;1.50;;
16705;SDS011;8469;60.136;15.180;2023-12-20T12:28:18;4.12;;;1.90;;
16705;SDS011;8469;60.136;15.180;2023-12-20T12:30:58;4.85;;;1.50;;
16705;SDS011;8469;60.136;15.180;2023-12-20T12:33:25;6.90;;;1.75;;
16705;SDS011;8469;60.136;15.180;2023-12-20T12:35:53;3.58;;;1.50;;
16705;SDS011;8469;60.136;15.180;2023-12-20T12:38:21;5.85;;;1.85;;
16705;SDS011;8469;60.136;15.180;2023-12-20T12:40:51;7.05;;;1.77;;
16705;SDS011;8469;60.136;15.180;2023-12-20T12:43:19;6.30;;;1.83;;
16705;SDS011;8469;60.136;15.180;2023-12-20T12:45:46;7.90;;;1.65;;
16705;SDS011;8469;60.136;15.180;2023-12-20T12:48:14;9.55;;;2.20;;
16705;SDS011;8469;60.136;15.180;2023-12-20T12:50:41;6.70;;;1.87;;
16705;SDS011;8469;60.136;15.180;2023-12-20T12:53:09;4.43;;;1.70;;
16705;SDS011;8469;60.136;15.180;2023-12-20T12:55:37;9.40;;;2.10;;
16705;SDS011;8469;60.136;15.180;2023-12-20T12:58:04;8.85;;;1.87;;
16705;SDS011;8469;60.136;15.180;2023-12-20T13:00:32;4.10;;;1.70;;
16705;SDS011;8469;60.136;15.180;2023-12-20T13:02:59;5.25;;;1.70;;
16705;SDS011;8469;60.136;15.180;2023-12-20T13:05:30;5.30;;;1.70;;
16705;SDS011;8469;60.136;15.180;2023-12-20T13:07:58;5.57;;;1.60;;
16705;SDS011;8469;60.136;15.180;2023-12-20T13:10:25;4.53;;;1.70;;
16705;SDS011;8469;60.136;15.180;2023-12-20T13:12:52;3.20;;;1.35;;
16705;SDS011;8469;60.136;15.180;2023-12-20T13:15:19;5.47;;;1.30;;
16705;SDS011;8469;60.136;15.180;2023-12-20T13:17:47;4.97;;;1.62;;
16705;SDS011;8469;60.136;15.180;2023-12-20T13:20:15;3.58;;;1.57;;
16705;SDS011;8469;60.136;15.180;2023-12-20T13:22:42;2.70;;;1.15;;
16705;SDS011;8469;60.136;15.180;2023-12-20T13:25:10;3.42;;;1.20;;
16705;SDS011;8469;60.136;15.180;2023-12-20T13:27:37;5.20;;;1.37;;
16705;SDS011;8469;60.136;15.180;2023-12-20T13:30:05;4.45;;;1.30;;
16705;SDS011;8469;60.136;15.180;2023-12-20T13:32:32;3.52;;;1.30;;
16705;SDS011;8469;60.136;15.180;2023-12-20T13:35:06;4.50;;;1.10;;
16705;SDS011;8469;60.136;15.180;2023-12-20T13:37:30;3.10;;;1.30;;
16705;SDS011;8469;60.136;15.180;2023-12-20T13:39:57;5.28;;;1.30;;
16705;SDS011;8469;60.136;15.180;2023-12-20T13:42:25;6.17;;;1.30;;
16705;SDS011;8469;60.136;15.180;2023-12-20T13:44:55;2.27;;;1.10;;
16705;SDS011;8469;60.136;15.180;2023-12-20T13:47:22;3.50;;;1.30;;
16705;SDS011;8469;60.136;15.180;2023-12-20T13:49:49;2.05;;;1.30;;
16705;SDS011;8469;60.136;15.180;2023-12-20T13:52:17;2.00;;;1.10;;
16705;SDS011;8469;60.136;15.180;2023-12-20T13:54:44;1.50;;;1.05;;
16705;SDS011;8469;60.136;15.180;2023-12-20T13:57:12;4.75;;;1.17;;
16705;SDS011;8469;60.136;15.180;2023-12-20T13:59:40;2.55;;;1.02;;
16705;SDS011;8469;60.136;15.180;2023-12-20T14:02:07;3.77;;;1.10;;
16705;SDS011;8469;60.136;15.180;2023-12-20T14:04:34;5.00;;;1.10;;
16705;SDS011;8469;60.136;15.180;2023-12-20T14:07:02;4.78;;;1.67;;
16705;SDS011;8469;60.136;15.180;2023-12-20T14:09:29;1.17;;;1.07;;
16705;SDS011;8469;60.136;15.180;2023-12-20T14:11:56;1.37;;;0.90;;
16705;SDS011;8469;60.136;15.180;2023-12-20T14:14:24;4.03;;;0.95;;
16705;SDS011;8469;60.136;15.180;2023-12-20T14:16:51;1.85;;;0.90;;
16705;SDS011;8469;60.136;15.180;2023-12-20T14:19:18;2.95;;;1.20;;
16705;SDS011;8469;60.136;15.180;2023-12-20T14:21:45;1.17;;;0.90;;
16705;SDS011;8469;60.136;15.180;2023-12-20T14:24:13;1.87;;;0.80;;
16705;SDS011;8469;60.136;15.180;2023-12-20T14:26:41;3.60;;;1.10;;
16705;SDS011;8469;60.136;15.180;2023-12-20T14:29:08;3.62;;;1.20;;
16705;SDS011;8469;60.136;15.180;2023-12-20T14:31:35;5.37;;;1.20;;
16705;SDS011;8469;60.136;15.180;2023-12-20T14:34:05;2.50;;;1.00;;
16705;SDS011;8469;60.136;15.180;2023-12-20T14:36:33;2.00;;;1.10;;
16705;SDS011;8469;60.136;15.180;2023-12-20T14:39:00;2.60;;;1.10;;
16705;SDS011;8469;60.136;15.180;2023-12-20T14:41:29;1.67;;;1.10;;
16705;SDS011;8469;60.136;15.180;2023-12-20T14:43:56;1.72;;;1.00;;
16705;SDS011;8469;60.136;15.180;2023-12-20T14:46:25;4.15;;;1.15;;
16705;SDS011;8469;60.136;15.180;2023-12-20T14:48:54;2.80;;;0.93;;
16705;SDS011;8469;60.136;15.180;2023-12-20T14:51:22;2.30;;;1.10;;
16705;SDS011;8469;60.136;15.180;2023-12-20T14:53:50;4.80;;;0.97;;